Time;durP1;ratioP1;P1;durP2;ratioP2;P2;SDS_P1;SDS_P2;PMS_P1;PMS_P2;Temp;Humidity;BMP_temperature;BMP_pressure;BME280_temperature;BME280_humidity;BME280_pressure;Samples;Min_cycle;Max_cycle;Signal;HPM_P1;HPM_P2
2022/01/14 00:00:23;;;;;;;;;;;3.50;99.90;;;;;;2089796;28;19912;-70
2022/01/14 00:01:24;;;;;;;;;;;3.50;99.90;;;;;;2084477;28;19913;-70
2022/01/14 00:02:24;;;;;;;;;;;3.50;99.90;;;;;;2087913;28;19909;-69
2022/01/14 00:03:25;;;;;;;;;;;3.50;99.90;;;;;;2090127;28;19913;-69
2022/01/14 00:04:25;;;;;;;;;;;3.50;99.90;;;;;;2090348;28;19909;-69
2022/01/14 00:05:26;;;;;;;;;;;3.50;99.90;;;;;;2089122;28;19934;-70
2022/01/14 00:06:26;;;;;;;;;;;3.50;99.90;;;;;;2089739;28;20344;-70
2022/01/14 00:07:27;;;;;;;;;;;3.50;99.90;;;;;;2089997;28;19908;-70
2022/01/14 00:08:27;;;;;;;;;;;3.50;99.90;;;;;;2090294;28;19917;-69
2022/01/14 00:09:28;;;;;;;;;;;3.40;99.90;;;;;;2089404;28;19967;-70
2022/01/14 00:10:30;;;;;;;;;;;3.40;99.90;;;;;;2089382;28;19909;-69
2022/01/14 00:11:32;;;;;;;;;;;3.40;99.90;;;;;;2089944;28;20016;-69
2022/01/14 00:12:39;;;;;;;;;;;3.40;99.90;;;;;;2090201;28;19920;-69
2022/01/14 00:13:50;;;;;;;;;;;3.40;99.90;;;;;;2090154;28;19999;-69
2022/01/14 00:15:13;;;;;;;;;;;3.40;99.90;;;;;;2090469;28;19916;-69
2022/01/14 00:16:13;;;;;;;;;;;3.40;99.90;;;;;;2082191;28;19916;-69
2022/01/14 00:17:14;;;;;;;;;;;3.40;99.90;;;;;;2086075;28;19920;-69
2022/01/14 00:18:15;;;;;;;;;;;3.40;99.90;;;;;;2090188;28;20412;-69
2022/01/14 00:19:16;;;;;;;;;;;3.40;99.90;;;;;;2089612;28;19967;-69
2022/01/14 00:20:17;;;;;;;;;;;3.30;99.90;;;;;;2089399;28;19948;-69
2022/01/14 00:21:18;;;;;;;;;;;3.30;99.90;;;;;;2089514;28;20361;-69
2022/01/14 00:22:19;;;;;;;;;;;3.30;99.90;;;;;;2090094;28;20253;-69
2022/01/14 00:23:26;;;;;;;;;;;3.30;99.90;;;;;;2090255;28;19944;-69
2022/01/14 00:31:37;;;;;;;;;;;3.30;99.90;;;;;;2090183;28;19920;-69
2022/01/14 00:32:39;;;;;;;;;;;3.20;99.90;;;;;;2090207;28;20353;-69
2022/01/14 00:33:40;;;;;;;;;;;3.20;99.90;;;;;;2090081;28;19908;-69
2022/01/14 00:34:41;;;;;;;;;;;3.20;99.90;;;;;;2089961;28;19919;-69
2022/01/14 00:35:41;;;;;;;;;;;3.20;99.90;;;;;;2090277;28;19909;-69
2022/01/14 00:36:42;;;;;;;;;;;3.20;99.90;;;;;;2089963;28;19920;-69
2022/01/14 00:37:42;;;;;;;;;;;3.20;99.90;;;;;;2090276;28;19913;-69
2022/01/14 00:38:43;;;;;;;;;;;3.20;99.90;;;;;;2087807;28;19913;-69
2022/01/14 00:39:44;;;;;;;;;;;3.20;99.90;;;;;;2087654;28;19952;-69
2022/01/14 00:40:44;;;;;;;;;;;3.20;99.90;;;;;;2089878;28;19909;-69
2022/01/14 00:41:45;;;;;;;;;;;3.20;99.90;;;;;;2090012;28;19909;-69
2022/01/14 00:42:46;;;;;;;;;;;3.20;99.90;;;;;;2090035;28;20423;-69
2022/01/14 00:43:46;;;;;;;;;;;3.20;99.90;;;;;;2090162;28;20008;-69
2022/01/14 00:44:47;;;;;;;;;;;3.20;99.90;;;;;;2089407;28;19909;-69
2022/01/14 00:45:48;;;;;;;;;;;3.20;99.90;;;;;;2090169;28;20354;-69
2022/01/14 00:46:49;;;;;;;;;;;3.20;99.90;;;;;;2089925;28;19966;-69
2022/01/14 00:47:50;;;;;;;;;;;3.10;99.90;;;;;;2090045;28;19931;-69
2022/01/14 00:48:50;;;;;;;;;;;3.20;99.90;;;;;;2089719;28;19909;-69
2022/01/14 00:49:50;;;;;;;;;;;3.10;99.90;;;;;;2090221;28;19916;-69
2022/01/14 00:50:51;;;;;;;;;;;3.10;99.90;;;;;;2089672;28;19913;-69
2022/01/14 00:51:51;;;;;;;;;;;3.10;99.90;;;;;;2090235;28;20260;-69
2022/01/14 00:52:52;;;;;;;;;;;3.10;99.90;;;;;;2089960;28;19913;-69
2022/01/14 00:53:52;;;;;;;;;;;3.10;99.90;;;;;;2089927;28;19916;-69
2022/01/14 00:54:53;;;;;;;;;;;3.10;99.90;;;;;;2089892;28;20364;-69
2022/01/14 00:56:05;;;;;;;;;;;3.10;99.90;;;;;;2090117;28;20050;-69
2022/01/14 00:59:28;;;;;;;;;;;3.10;99.90;;;;;;2087532;28;19908;-69
2022/01/14 01:00:30;;;;;;;;;;;3.10;99.90;;;;;;2084353;28;19921;-69
2022/01/14 01:01:31;;;;;;;;;;;3.10;99.90;;;;;;2089711;28;19909;-69
2022/01/14 01:02:31;;;;;;;;;;;3.00;99.90;;;;;;2090005;28;20388;-69
2022/01/14 01:03:33;;;;;;;;;;;3.00;99.90;;;;;;2089256;28;19913;-69
2022/01/14 01:04:37;;;;;;;;;;;3.10;99.90;;;;;;2089366;28;20319;-69
2022/01/14 01:05:38;;;;;;;;;;;3.10;99.90;;;;;;2089793;28;19916;-69
2022/01/14 01:06:38;;;;;;;;;;;3.10;99.90;;;;;;2090196;28;20516;-69
2022/01/14 01:07:44;;;;;;;;;;;3.10;99.90;;;;;;2089732;28;19956;-69
2022/01/14 01:08:46;;;;;;;;;;;3.10;99.90;;;;;;2091416;28;20252;-69
2022/01/14 01:09:50;;;;;;;;;;;3.00;99.90;;;;;;2099070;28;19909;-69
2022/01/14 01:10:51;;;;;;;;;;;3.00;99.90;;;;;;2098593;28;19913;-69
2022/01/14 01:13:19;;;;;;;;;;;3.10;99.90;;;;;;2083215;28;20000;-69
2022/01/14 01:14:26;;;;;;;;;;;3.00;99.90;;;;;;2084335;28;19959;-69
2022/01/14 01:15:26;;;;;;;;;;;3.00;99.90;;;;;;2085527;28;20253;-69
2022/01/14 01:16:27;;;;;;;;;;;3.00;99.90;;;;;;2091358;28;19970;-69
2022/01/14 01:17:27;;;;;;;;;;;3.00;99.90;;;;;;2091585;28;19999;-69
2022/01/14 01:18:28;;;;;;;;;;;3.00;99.90;;;;;;2091316;28;19908;-69
2022/01/14 01:19:28;;;;;;;;;;;3.00;99.90;;;;;;2091516;28;19948;-69
2022/01/14 01:20:28;;;;;;;;;;;3.00;99.90;;;;;;2090928;28;20478;-69
2022/01/14 01:21:29;;;;;;;;;;;3.00;99.90;;;;;;2091493;28;20540;-69
2022/01/14 01:22:29;;;;;;;;;;;3.00;99.90;;;;;;2091191;28;19913;-69
2022/01/14 01:23:30;;;;;;;;;;;3.00;99.90;;;;;;2091459;28;20415;-69
2022/01/14 01:24:30;;;;;;;;;;;3.00;99.90;;;;;;2091343;28;19999;-69
2022/01/14 01:25:38;;;;;;;;;;;3.00;99.90;;;;;;2091147;28;19913;-69
2022/01/14 01:26:41;;;;;;;;;;;3.00;99.90;;;;;;2091280;28;19908;-69
2022/01/14 01:27:43;;;;;;;;;;;3.00;99.90;;;;;;2091533;28;20357;-69
2022/01/14 01:29:08;;;;;;;;;;;3.00;99.90;;;;;;2088795;28;19920;-69
2022/01/14 01:31:35;;;;;;;;;;;3.00;99.90;;;;;;2091417;28;19916;-69
2022/01/14 01:32:35;;;;;;;;;;;3.00;99.90;;;;;;2091409;28;19948;-69
2022/01/14 01:33:36;;;;;;;;;;;3.00;99.90;;;;;;2091367;28;19935;-69
2022/01/14 01:34:36;;;;;;;;;;;2.90;99.90;;;;;;2089948;28;20353;-69
2022/01/14 01:35:37;;;;;;;;;;;2.90;99.90;;;;;;2090631;28;19909;-69
2022/01/14 01:36:38;;;;;;;;;;;2.90;99.90;;;;;;2091078;28;19944;-69
2022/01/14 01:37:38;;;;;;;;;;;2.90;99.90;;;;;;2091435;28;19909;-69
2022/01/14 01:38:39;;;;;;;;;;;2.90;99.90;;;;;;2091136;28;19992;-69
2022/01/14 01:39:39;;;;;;;;;;;2.90;99.90;;;;;;2090502;28;19909;-69
2022/01/14 01:40:40;;;;;;;;;;;2.90;99.90;;;;;;2090325;28;19909;-69
2022/01/14 01:41:42;;;;;;;;;;;2.90;99.90;;;;;;2091199;28;19944;-69
2022/01/14 01:42:44;;;;;;;;;;;2.90;99.90;;;;;;2091246;28;19913;-69
2022/01/14 01:43:50;;;;;;;;;;;2.90;99.90;;;;;;2084791;28;19957;-69
2022/01/14 01:44:50;;;;;;;;;;;2.80;99.90;;;;;;2094113;28;19908;-69
2022/01/14 01:45:53;;;;;;;;;;;2.90;99.90;;;;;;2098913;28;19921;-69
2022/01/14 01:46:55;;;;;;;;;;;2.80;99.90;;;;;;2082822;28;19925;-69
2022/01/14 01:47:55;;;;;;;;;;;2.80;99.90;;;;;;2085961;28;20403;-69
2022/01/14 01:48:56;;;;;;;;;;;2.80;99.90;;;;;;2089243;28;20268;-69
2022/01/14 01:49:56;;;;;;;;;;;2.80;99.90;;;;;;2085290;28;19921;-69
2022/01/14 01:50:58;;;;;;;;;;;2.80;99.90;;;;;;2089827;28;19951;-69
2022/01/14 01:51:58;;;;;;;;;;;2.80;99.90;;;;;;2091280;28;19908;-69
2022/01/14 01:52:59;;;;;;;;;;;2.80;99.90;;;;;;2091291;28;19909;-69
2022/01/14 01:53:59;;;;;;;;;;;2.80;99.90;;;;;;2091001;28;19909;-69
2022/01/14 01:55:00;;;;;;;;;;;2.80;99.90;;;;;;2091352;28;19915;-69
2022/01/14 01:56:00;;;;;;;;;;;2.80;99.90;;;;;;2090701;28;19916;-69
2022/01/14 01:57:01;;;;;;;;;;;2.80;99.90;;;;;;2091109;28;19909;-69
2022/01/14 01:58:01;;;;;;;;;;;2.80;99.90;;;;;;2088120;28;20280;-69
2022/01/14 01:59:02;;;;;;;;;;;2.80;99.90;;;;;;2090279;28;19951;-70
2022/01/14 02:00:07;;;;;;;;;;;2.80;99.90;;;;;;2091004;28;19908;-70
2022/01/14 02:01:08;;;;;;;;;;;2.80;99.90;;;;;;2090807;28;19909;-70
2022/01/14 02:02:09;;;;;;;;;;;2.80;99.90;;;;;;2090744;28;19915;-70
2022/01/14 02:03:12;;;;;;;;;;;2.90;99.90;;;;;;2091020;28;19908;-70
2022/01/14 02:04:12;;;;;;;;;;;2.90;99.90;;;;;;2089795;28;19913;-70
2022/01/14 02:05:13;;;;;;;;;;;2.90;99.90;;;;;;2089335;28;19922;-69
2022/01/14 02:06:14;;;;;;;;;;;2.90;99.90;;;;;;2089349;28;19956;-70
2022/01/14 02:07:15;;;;;;;;;;;2.90;99.90;;;;;;2089651;28;19913;-70
2022/01/14 02:08:15;;;;;;;;;;;2.90;99.90;;;;;;2087864;28;19916;-70
2022/01/14 02:09:16;;;;;;;;;;;2.90;99.90;;;;;;2089525;28;19943;-70
2022/01/14 02:10:16;;;;;;;;;;;2.90;99.90;;;;;;2088929;28;19913;-70
2022/01/14 02:11:17;;;;;;;;;;;3.00;99.90;;;;;;2089131;28;20391;-70
2022/01/14 02:12:19;;;;;;;;;;;2.90;99.90;;;;;;2089067;28;19909;-70
2022/01/14 02:13:19;;;;;;;;;;;2.90;99.90;;;;;;2089623;28;19916;-69
2022/01/14 02:14:40;;;;;;;;;;;3.00;99.90;;;;;;2089285;28;19919;-70
2022/01/14 02:17:14;;;;;;;;;;;3.00;99.90;;;;;;2089312;28;19963;-70
2022/01/14 02:19:16;;;;;;;;;;;3.00;99.90;;;;;;2087393;28;19959;-70
2022/01/14 02:22:56;;;;;;;;;;;3.10;99.90;;;;;;2087110;28;19916;-70
2022/01/14 02:24:32;;;;;;;;;;;3.10;99.90;;;;;;2089486;28;19940;-70
2022/01/14 02:25:30;;;;;;;;;;;3.10;99.90;;;;;;2089260;28;20312;-70
2022/01/14 02:26:30;;;;;;;;;;;3.10;99.90;;;;;;2089268;28;19909;-70
2022/01/14 02:27:31;;;;;;;;;;;3.10;99.90;;;;;;2089402;28;19916;-70
2022/01/14 02:28:31;;;;;;;;;;;3.10;99.90;;;;;;2089190;28;19972;-70
2022/01/14 02:29:32;;;;;;;;;;;3.20;99.90;;;;;;2089343;28;20258;-70
2022/01/14 02:30:33;;;;;;;;;;;3.20;99.90;;;;;;2083415;28;19913;-70
2022/01/14 02:31:34;;;;;;;;;;;3.20;99.90;;;;;;2082229;28;19998;-70
2022/01/14 02:32:34;;;;;;;;;;;3.20;99.90;;;;;;2088977;28;19960;-70
2022/01/14 02:33:35;;;;;;;;;;;3.20;99.90;;;;;;2088911;28;19909;-70
2022/01/14 02:34:36;;;;;;;;;;;3.30;99.90;;;;;;2089399;28;20364;-70
2022/01/14 02:35:37;;;;;;;;;;;3.20;99.90;;;;;;2080976;28;19909;-70
2022/01/14 02:36:41;;;;;;;;;;;3.20;99.90;;;;;;2092184;28;20345;-70
2022/01/14 02:37:42;;;;;;;;;;;3.30;99.90;;;;;;2096274;28;19944;-70
2022/01/14 02:38:43;;;;;;;;;;;3.30;99.90;;;;;;2088570;28;19920;-70
2022/01/14 02:39:44;;;;;;;;;;;3.30;99.90;;;;;;2087521;28;20019;-70
2022/01/14 02:40:45;;;;;;;;;;;3.30;99.90;;;;;;2088674;28;19912;-70
2022/01/14 02:41:46;;;;;;;;;;;3.30;99.90;;;;;;2088769;28;19972;-70
2022/01/14 02:42:48;;;;;;;;;;;3.30;99.90;;;;;;2089351;28;19931;-70
2022/01/14 02:43:49;;;;;;;;;;;3.30;99.90;;;;;;2089287;28;19966;-70
2022/01/14 02:44:49;;;;;;;;;;;3.30;99.90;;;;;;2089056;28;19917;-70
2022/01/14 02:45:52;;;;;;;;;;;3.30;99.90;;;;;;2089002;28;19912;-70
2022/01/14 02:46:56;;;;;;;;;;;3.30;99.90;;;;;;2088719;28;19913;-70
2022/01/14 02:47:56;;;;;;;;;;;3.30;99.90;;;;;;2088737;28;19967;-70
2022/01/14 02:48:57;;;;;;;;;;;3.30;99.90;;;;;;2087798;28;20051;-70
2022/01/14 02:49:58;;;;;;;;;;;3.30;99.90;;;;;;2086502;28;20007;-70
2022/01/14 02:51:09;;;;;;;;;;;3.40;99.90;;;;;;2088438;28;19916;-70
2022/01/14 02:52:10;;;;;;;;;;;3.30;99.90;;;;;;2088982;28;19912;-70
2022/01/14 02:53:25;;;;;;;;;;;3.40;99.90;;;;;;2082886;28;19920;-70
2022/01/14 02:54:33;;;;;;;;;;;3.40;99.90;;;;;;2088318;28;19944;-70
2022/01/14 02:55:35;;;;;;;;;;;3.40;99.90;;;;;;2088068;28;19912;-70
2022/01/14 02:56:37;;;;;;;;;;;3.40;99.90;;;;;;2082927;28;19917;-70
2022/01/14 02:57:38;;;;;;;;;;;3.40;99.90;;;;;;2088127;28;20268;-70
2022/01/14 02:58:39;;;;;;;;;;;3.40;99.90;;;;;;2084903;28;20006;-70
2022/01/14 02:59:40;;;;;;;;;;;3.40;99.90;;;;;;2088545;28;19951;-70
2022/01/14 03:00:41;;;;;;;;;;;3.40;99.90;;;;;;2087979;28;19937;-70
2022/01/14 03:01:42;;;;;;;;;;;3.40;99.90;;;;;;2087979;28;19979;-70
2022/01/14 03:02:44;;;;;;;;;;;3.40;99.90;;;;;;2088996;28;20851;-70
2022/01/14 03:03:45;;;;;;;;;;;3.40;99.90;;;;;;2088728;28;19909;-70
2022/01/14 03:04:46;;;;;;;;;;;3.40;99.90;;;;;;2089071;28;19909;-70
2022/01/14 03:05:46;;;;;;;;;;;3.40;99.90;;;;;;2088884;28;19923;-70
2022/01/14 03:06:48;;;;;;;;;;;3.40;99.90;;;;;;2089160;28;19913;-70
2022/01/14 03:07:49;;;;;;;;;;;3.40;99.90;;;;;;2088840;28;19983;-70
2022/01/14 03:08:49;;;;;;;;;;;3.40;99.90;;;;;;2088442;28;19909;-70
2022/01/14 03:09:50;;;;;;;;;;;3.40;99.90;;;;;;2088846;28;19931;-70
2022/01/14 03:11:03;;;;;;;;;;;3.40;99.90;;;;;;2088363;28;19920;-70
2022/01/14 03:12:03;;;;;;;;;;;3.40;99.90;;;;;;2088981;28;19917;-70
2022/01/14 03:13:04;;;;;;;;;;;3.40;99.90;;;;;;2088911;28;19916;-70
2022/01/14 03:14:05;;;;;;;;;;;3.40;99.90;;;;;;2088768;28;19909;-70
2022/01/14 03:15:05;;;;;;;;;;;3.40;99.90;;;;;;2088992;28;19909;-70
2022/01/14 03:16:06;;;;;;;;;;;3.40;99.90;;;;;;2088707;28;19987;-70
2022/01/14 03:17:07;;;;;;;;;;;3.40;99.90;;;;;;2088651;28;20284;-70
2022/01/14 03:18:07;;;;;;;;;;;3.40;99.90;;;;;;2088942;28;19923;-71
2022/01/14 03:19:16;;;;;;;;;;;3.40;99.90;;;;;;2088974;28;19954;-70
2022/01/14 03:20:43;;;;;;;;;;;3.50;99.90;;;;;;2088737;28;19909;-70
2022/01/14 03:21:43;;;;;;;;;;;3.50;99.90;;;;;;2088926;28;19913;-70
2022/01/14 03:22:52;;;;;;;;;;;3.50;99.90;;;;;;2088864;28;19996;-70
2022/01/14 03:24:03;;;;;;;;;;;3.50;99.90;;;;;;2088127;28;19913;-70
2022/01/14 03:26:23;;;;;;;;;;;3.50;99.90;;;;;;2080885;28;19917;-70
2022/01/14 03:27:24;;;;;;;;;;;3.50;99.90;;;;;;2088600;28;19912;-70
2022/01/14 03:28:24;;;;;;;;;;;3.50;99.90;;;;;;2088809;28;19908;-70
2022/01/14 03:29:25;;;;;;;;;;;3.50;99.90;;;;;;2089208;28;20272;-70
2022/01/14 03:30:25;;;;;;;;;;;3.50;99.90;;;;;;2088766;28;19927;-70
2022/01/14 03:31:26;;;;;;;;;;;3.50;99.90;;;;;;2087771;28;19909;-70
2022/01/14 03:32:26;;;;;;;;;;;3.60;99.90;;;;;;2088743;28;19916;-70
2022/01/14 03:33:27;;;;;;;;;;;3.60;99.90;;;;;;2089164;28;19913;-70
2022/01/14 03:34:27;;;;;;;;;;;3.60;99.90;;;;;;2088815;28;19909;-70
2022/01/14 03:35:27;;;;;;;;;;;3.50;99.90;;;;;;2088600;28;19919;-70
2022/01/14 03:36:28;;;;;;;;;;;3.50;99.90;;;;;;2088702;28;20420;-70
2022/01/14 03:37:29;;;;;;;;;;;3.50;99.90;;;;;;2088788;28;19923;-70
2022/01/14 03:38:29;;;;;;;;;;;3.50;99.90;;;;;;2087089;28;19916;-70
2022/01/14 03:39:30;;;;;;;;;;;3.50;99.90;;;;;;2088515;28;20340;-70
2022/01/14 03:40:31;;;;;;;;;;;3.50;99.90;;;;;;2089070;28;19955;-70
2022/01/14 03:41:31;;;;;;;;;;;3.40;99.90;;;;;;2088194;28;19920;-70
2022/01/14 03:42:32;;;;;;;;;;;3.50;99.90;;;;;;2088884;28;19917;-70
2022/01/14 03:43:33;;;;;;;;;;;3.50;99.90;;;;;;2088543;28;19955;-70
2022/01/14 03:44:33;;;;;;;;;;;3.40;99.90;;;;;;2088192;28;19913;-70
2022/01/14 03:45:34;;;;;;;;;;;3.50;99.90;;;;;;2087959;28;19919;-70
2022/01/14 03:46:35;;;;;;;;;;;3.50;99.90;;;;;;2088598;28;19912;-70
2022/01/14 03:47:35;;;;;;;;;;;3.50;99.90;;;;;;2088642;28;19913;-70
2022/01/14 03:48:36;;;;;;;;;;;3.40;99.90;;;;;;2088826;28;19947;-70
2022/01/14 03:49:36;;;;;;;;;;;3.50;99.90;;;;;;2088512;28;19909;-70
2022/01/14 03:50:37;;;;;;;;;;;3.50;99.90;;;;;;2088786;28;19944;-70
2022/01/14 03:51:37;;;;;;;;;;;3.40;99.90;;;;;;2087751;28;19932;-70
2022/01/14 03:52:38;;;;;;;;;;;3.40;99.90;;;;;;2086917;28;19909;-70
2022/01/14 03:53:39;;;;;;;;;;;3.40;99.90;;;;;;2084918;28;19939;-70
2022/01/14 03:54:39;;;;;;;;;;;3.40;99.90;;;;;;2088741;28;19909;-70
2022/01/14 03:55:40;;;;;;;;;;;3.40;99.90;;;;;;2088339;28;19917;-70
2022/01/14 03:56:41;;;;;;;;;;;3.40;99.90;;;;;;2088809;28;20264;-70
2022/01/14 03:57:41;;;;;;;;;;;3.40;99.90;;;;;;2088695;28;19913;-70
2022/01/14 03:58:42;;;;;;;;;;;3.40;99.90;;;;;;2088803;28;19924;-70
2022/01/14 03:59:42;;;;;;;;;;;3.40;99.90;;;;;;2088322;28;19923;-70
2022/01/14 04:00:43;;;;;;;;;;;3.40;99.90;;;;;;2088395;28;20401;-70
2022/01/14 04:01:43;;;;;;;;;;;3.50;99.90;;;;;;2088155;28;19982;-70
2022/01/14 04:02:44;;;;;;;;;;;3.40;99.90;;;;;;2088684;28;19913;-70
2022/01/14 04:03:45;;;;;;;;;;;3.50;99.90;;;;;;2088409;28;19909;-70
2022/01/14 04:04:46;;;;;;;;;;;3.50;99.90;;;;;;2088550;28;20307;-70
2022/01/14 04:05:46;;;;;;;;;;;3.50;99.90;;;;;;2088615;28;19916;-70
2022/01/14 04:06:47;;;;;;;;;;;3.40;99.90;;;;;;2088471;28;19916;-70
2022/01/14 04:07:47;;;;;;;;;;;3.40;99.90;;;;;;2088181;28;19975;-70
2022/01/14 04:08:48;;;;;;;;;;;3.40;99.90;;;;;;2090315;28;19912;-70
2022/01/14 04:09:48;;;;;;;;;;;3.50;99.90;;;;;;2090195;28;19908;-70
2022/01/14 04:10:51;;;;;;;;;;;3.40;99.90;;;;;;2097289;28;20357;-70
2022/01/14 04:11:52;;;;;;;;;;;3.50;99.90;;;;;;2097393;28;19908;-70
2022/01/14 04:13:03;;;;;;;;;;;3.50;99.90;;;;;;2090266;28;20009;-70
2022/01/14 04:15:38;;;;;;;;;;;3.50;99.90;;;;;;2090353;28;19999;-70
2022/01/14 04:16:38;;;;;;;;;;;3.50;99.90;;;;;;2090187;28;20018;-70
2022/01/14 04:17:39;;;;;;;;;;;3.50;99.90;;;;;;2090271;28;19909;-70
2022/01/14 04:18:39;;;;;;;;;;;3.50;99.90;;;;;;2089892;28;19909;-70
2022/01/14 04:19:40;;;;;;;;;;;3.50;99.90;;;;;;2090180;28;19909;-70
2022/01/14 04:20:41;;;;;;;;;;;3.50;99.90;;;;;;2089385;28;19916;-70
2022/01/14 04:21:41;;;;;;;;;;;3.50;99.90;;;;;;2082604;28;20020;-70
2022/01/14 04:22:42;;;;;;;;;;;3.50;99.90;;;;;;2090074;28;19916;-70
2022/01/14 04:23:42;;;;;;;;;;;3.50;99.90;;;;;;2090032;28;19913;-70
2022/01/14 04:24:43;;;;;;;;;;;3.50;99.90;;;;;;2090080;28;20002;-70
2022/01/14 04:25:44;;;;;;;;;;;3.50;99.90;;;;;;2090297;28;19909;-70
2022/01/14 04:26:44;;;;;;;;;;;3.50;99.90;;;;;;2088980;28;19908;-70
2022/01/14 04:27:45;;;;;;;;;;;3.50;99.90;;;;;;2090107;28;19913;-70
2022/01/14 04:28:45;;;;;;;;;;;3.40;99.90;;;;;;2089939;28;20377;-70
2022/01/14 04:29:46;;;;;;;;;;;3.50;99.90;;;;;;2090063;28;19986;-70
2022/01/14 04:30:47;;;;;;;;;;;3.50;99.90;;;;;;2089834;28;19917;-70
2022/01/14 04:31:47;;;;;;;;;;;3.50;99.90;;;;;;2090005;28;19944;-70
2022/01/14 04:32:48;;;;;;;;;;;3.50;99.90;;;;;;2089428;28;20280;-70
2022/01/14 04:33:48;;;;;;;;;;;3.50;99.90;;;;;;2089235;28;19961;-70
2022/01/14 04:34:49;;;;;;;;;;;3.40;99.90;;;;;;2090119;28;20022;-70
2022/01/14 04:35:50;;;;;;;;;;;3.40;99.90;;;;;;2089360;28;19909;-70
2022/01/14 04:36:50;;;;;;;;;;;3.40;99.90;;;;;;2090177;28;20280;-70
2022/01/14 04:37:51;;;;;;;;;;;3.40;99.90;;;;;;2089875;28;20323;-70
2022/01/14 04:38:51;;;;;;;;;;;3.40;99.90;;;;;;2090337;28;19909;-70
2022/01/14 04:39:51;;;;;;;;;;;3.40;99.90;;;;;;2085480;28;20003;-70
2022/01/14 04:40:52;;;;;;;;;;;3.40;99.90;;;;;;2090045;28;19935;-70
2022/01/14 04:41:53;;;;;;;;;;;3.40;99.90;;;;;;2089901;28;19908;-70
2022/01/14 04:42:54;;;;;;;;;;;3.40;99.90;;;;;;2090154;28;20004;-70
2022/01/14 04:43:55;;;;;;;;;;;3.40;99.90;;;;;;2091729;28;20488;-70
2022/01/14 04:44:56;;;;;;;;;;;3.40;99.90;;;;;;2091776;28;19985;-70
2022/01/14 04:47:13;;;;;;;;;;;3.40;99.90;;;;;;2091947;28;20319;-70
2022/01/14 04:48:14;;;;;;;;;;;3.40;99.90;;;;;;2091328;28;19909;-70
2022/01/14 04:49:14;;;;;;;;;;;3.40;99.90;;;;;;2091798;28;19909;-70
2022/01/14 04:50:17;;;;;;;;;;;3.40;99.90;;;;;;2090276;28;19909;-70
2022/01/14 04:51:20;;;;;;;;;;;3.40;99.90;;;;;;2087447;28;19913;-70
2022/01/14 04:52:21;;;;;;;;;;;3.30;99.90;;;;;;2091613;28;19909;-70
2022/01/14 04:53:22;;;;;;;;;;;3.30;99.90;;;;;;2089238;28;19916;-70
2022/01/14 04:54:22;;;;;;;;;;;3.30;99.90;;;;;;2089658;28;19996;-70
2022/01/14 04:55:24;;;;;;;;;;;3.30;99.90;;;;;;2085602;28;20353;-70
2022/01/14 04:56:24;;;;;;;;;;;3.30;99.90;;;;;;2091370;28;19908;-70
2022/01/14 04:57:24;;;;;;;;;;;3.30;99.90;;;;;;2091391;28;20059;-70
2022/01/14 04:58:26;;;;;;;;;;;3.30;99.90;;;;;;2091513;28;19934;-70
2022/01/14 04:59:26;;;;;;;;;;;3.30;99.90;;;;;;2091488;28;19948;-70
2022/01/14 05:00:28;;;;;;;;;;;3.20;99.90;;;;;;2091561;28;19916;-70
2022/01/14 05:01:29;;;;;;;;;;;3.20;99.90;;;;;;2091294;28;19908;-70
2022/01/14 05:02:30;;;;;;;;;;;3.20;99.90;;;;;;2091419;28;19995;-70
2022/01/14 05:03:30;;;;;;;;;;;3.20;99.90;;;;;;2088112;28;20349;-70
2022/01/14 05:04:31;;;;;;;;;;;3.30;99.90;;;;;;2088159;28;19948;-70
2022/01/14 05:05:34;;;;;;;;;;;3.20;99.90;;;;;;2089291;28;19921;-70
2022/01/14 05:06:35;;;;;;;;;;;3.20;99.90;;;;;;2090079;28;19915;-70
2022/01/14 05:07:36;;;;;;;;;;;3.20;99.90;;;;;;2087066;28;19920;-70
2022/01/14 05:08:39;;;;;;;;;;;3.30;99.90;;;;;;2081680;28;19913;-70
2022/01/14 05:09:44;;;;;;;;;;;3.30;99.90;;;;;;2081863;28;19921;-70
2022/01/14 05:11:58;;;;;;;;;;;3.30;99.90;;;;;;2089948;28;20015;-70
2022/01/14 05:12:59;;;;;;;;;;;3.30;99.90;;;;;;2089939;28;19912;-70
2022/01/14 05:13:59;;;;;;;;;;;3.30;99.90;;;;;;2090007;28;19932;-70
2022/01/14 05:15:01;;;;;;;;;;;3.30;99.90;;;;;;2089630;28;19909;-70
2022/01/14 05:16:02;;;;;;;;;;;3.30;99.90;;;;;;2087640;28;19909;-70
2022/01/14 05:17:02;;;;;;;;;;;3.30;99.90;;;;;;2084240;28;19924;-70
2022/01/14 05:18:03;;;;;;;;;;;3.20;99.90;;;;;;2090082;28;19908;-70
2022/01/14 05:19:03;;;;;;;;;;;3.30;99.90;;;;;;2089637;28;20280;-70
2022/01/14 05:20:04;;;;;;;;;;;3.30;99.90;;;;;;2083062;28;19955;-70
2022/01/14 05:21:05;;;;;;;;;;;3.30;99.90;;;;;;2089096;28;20353;-70
2022/01/14 05:22:06;;;;;;;;;;;3.30;99.90;;;;;;2087026;28;20285;-70
2022/01/14 05:23:06;;;;;;;;;;;3.30;99.90;;;;;;2089354;28;19912;-70
2022/01/14 05:24:07;;;;;;;;;;;3.30;99.90;;;;;;2089632;28;19909;-70
2022/01/14 05:25:08;;;;;;;;;;;3.30;99.90;;;;;;2089398;28;19917;-70
2022/01/14 05:26:08;;;;;;;;;;;3.40;99.90;;;;;;2088990;28;20023;-70
2022/01/14 05:27:09;;;;;;;;;;;3.40;99.90;;;;;;2089512;28;19910;-70
2022/01/14 05:28:09;;;;;;;;;;;3.40;99.90;;;;;;2086336;28;19990;-70
2022/01/14 05:29:10;;;;;;;;;;;3.40;99.90;;;;;;2086108;28;19909;-70
2022/01/14 05:30:11;;;;;;;;;;;3.40;99.90;;;;;;2089172;28;20383;-70
2022/01/14 05:31:12;;;;;;;;;;;3.40;99.90;;;;;;2088551;28;19917;-70
2022/01/14 05:32:14;;;;;;;;;;;3.40;99.90;;;;;;2090478;28;19966;-70
2022/01/14 05:33:16;;;;;;;;;;;3.40;99.90;;;;;;2096130;28;19917;-70
2022/01/14 05:34:16;;;;;;;;;;;3.40;99.90;;;;;;2089592;28;19959;-71
2022/01/14 05:35:19;;;;;;;;;;;3.40;99.90;;;;;;2088393;28;19909;-70
2022/01/14 05:36:21;;;;;;;;;;;3.40;99.90;;;;;;2089252;28;19928;-70
2022/01/14 05:37:21;;;;;;;;;;;3.40;99.90;;;;;;2089279;28;19942;-70
2022/01/14 05:38:21;;;;;;;;;;;3.50;99.90;;;;;;2089023;28;19947;-70
2022/01/14 05:39:23;;;;;;;;;;;3.50;99.90;;;;;;2089731;28;19972;-70
2022/01/14 05:40:26;;;;;;;;;;;3.50;99.90;;;;;;2087125;28;19920;-70
2022/01/14 05:41:27;;;;;;;;;;;3.50;99.90;;;;;;2086446;28;20404;-70
2022/01/14 05:42:33;;;;;;;;;;;3.50;99.90;;;;;;2086585;28;20288;-70
2022/01/14 05:43:34;;;;;;;;;;;3.50;99.90;;;;;;2089167;28;19952;-70
2022/01/14 05:44:34;;;;;;;;;;;3.50;99.90;;;;;;2086324;28;19975;-70
2022/01/14 05:45:35;;;;;;;;;;;3.50;99.90;;;;;;2088558;28;19913;-70
2022/01/14 05:46:36;;;;;;;;;;;3.50;99.90;;;;;;2088837;28;19913;-70
2022/01/14 05:47:37;;;;;;;;;;;3.50;99.90;;;;;;2089071;28;19919;-70
2022/01/14 05:48:37;;;;;;;;;;;3.50;99.90;;;;;;2087223;28;20315;-70
2022/01/14 05:49:38;;;;;;;;;;;3.50;99.90;;;;;;2089339;28;19913;-70
2022/01/14 05:50:38;;;;;;;;;;;3.50;99.90;;;;;;2088719;28;19909;-70
2022/01/14 05:51:39;;;;;;;;;;;3.50;99.90;;;;;;2087869;28;20353;-70
2022/01/14 05:52:40;;;;;;;;;;;3.50;99.90;;;;;;2088436;28;19936;-70
2022/01/14 05:53:40;;;;;;;;;;;3.50;99.90;;;;;;2082734;28;19960;-70
2022/01/14 05:54:41;;;;;;;;;;;3.50;99.90;;;;;;2083288;28;19936;-70
2022/01/14 05:55:41;;;;;;;;;;;3.60;99.90;;;;;;2085870;28;20062;-70
2022/01/14 05:56:42;;;;;;;;;;;3.60;99.90;;;;;;2086049;28;20408;-70
2022/01/14 05:57:42;;;;;;;;;;;3.60;99.90;;;;;;2084230;28;20039;-70
2022/01/14 05:58:43;;;;;;;;;;;3.60;99.90;;;;;;2087293;28;19909;-70
2022/01/14 05:59:43;;;;;;;;;;;3.60;99.90;;;;;;2083500;28;19988;-70
2022/01/14 06:00:44;;;;;;;;;;;3.60;99.90;;;;;;2085330;28;19983;-70
2022/01/14 06:01:45;;;;;;;;;;;3.60;99.90;;;;;;2086900;28;19909;-70
2022/01/14 06:02:46;;;;;;;;;;;3.60;99.90;;;;;;2088584;28;19912;-70
2022/01/14 06:03:46;;;;;;;;;;;3.60;99.90;;;;;;2086289;28;19948;-70
2022/01/14 06:04:47;;;;;;;;;;;3.60;99.90;;;;;;2084650;28;19912;-70
2022/01/14 06:05:47;;;;;;;;;;;3.60;99.90;;;;;;2087931;28;19924;-70
2022/01/14 06:06:47;;;;;;;;;;;3.60;99.90;;;;;;2085452;28;20360;-70
2022/01/14 06:07:48;;;;;;;;;;;3.60;99.90;;;;;;2083659;28;19909;-70
2022/01/14 06:08:49;;;;;;;;;;;3.60;99.90;;;;;;2088206;28;20384;-70
2022/01/14 06:09:49;;;;;;;;;;;3.60;99.90;;;;;;2088859;28;19909;-70
2022/01/14 06:10:50;;;;;;;;;;;3.60;99.90;;;;;;2088526;28;19928;-70
2022/01/14 06:11:50;;;;;;;;;;;3.50;99.90;;;;;;2086113;28;19971;-70
2022/01/14 06:12:51;;;;;;;;;;;3.50;99.90;;;;;;2088281;28;19913;-70
2022/01/14 06:13:51;;;;;;;;;;;3.50;99.90;;;;;;2088092;28;19979;-70
2022/01/14 06:14:52;;;;;;;;;;;3.50;99.90;;;;;;2087237;28;19916;-70
2022/01/14 06:15:52;;;;;;;;;;;3.50;99.90;;;;;;2088300;28;19932;-70
2022/01/14 06:16:53;;;;;;;;;;;3.50;99.90;;;;;;2086512;28;19917;-70
2022/01/14 06:17:53;;;;;;;;;;;3.50;99.90;;;;;;2088279;28;20428;-70
2022/01/14 06:18:54;;;;;;;;;;;3.50;99.90;;;;;;2088569;28;20035;-70
2022/01/14 06:19:54;;;;;;;;;;;3.50;99.90;;;;;;2083480;28;19968;-70
2022/01/14 06:20:54;;;;;;;;;;;3.50;99.90;;;;;;2082327;28;19917;-70
2022/01/14 06:21:55;;;;;;;;;;;3.50;99.90;;;;;;2085406;28;20258;-70
2022/01/14 06:22:56;;;;;;;;;;;3.50;99.90;;;;;;2084579;28;19909;-70
2022/01/14 06:23:56;;;;;;;;;;;3.50;99.90;;;;;;2080433;28;19962;-70
2022/01/14 06:24:58;;;;;;;;;;;3.50;99.90;;;;;;2088930;28;19913;-70
2022/01/14 06:26:01;;;;;;;;;;;3.50;99.90;;;;;;2088829;28;19913;-70
2022/01/14 06:27:02;;;;;;;;;;;3.50;99.90;;;;;;2089002;28;19912;-70